Akin, Georgia
Current Conditions -  °F | °C
As of 2:35 PM on Sunday 23 Nov 2014 (Local Time) from KCWV Reporting Station
Overcast Overcast  
Wind Chill: 70°   Ceiling: 400
Heat Index: 70°   Visibility: 10mi
Dew Point: 70°   Wind: 6mph
Humidity: 100%   Direction: 120°ESE
Pressure: 29.85"   Gusts: NA
Location:  32.2794°N, 81.623°W
Report Text: KCWV 231935Z AUTO 12005KT 10SM OVC004 21/21 A2985 RMK AO2
Loading
Personal Weather Stations






























Interactive Weather Map New forecast layout! Learn more

10-Day Weather Forecast

Advertisements
Track Severe Weather on mobile